sensor_id;sensor_type;location;lat;lon;timestamp;P1;durP1;ratioP1;P2;durP2;ratioP2
16977;SDS011;8605;52.548;4.918;2024-02-16T00:00:01;9.80;;;4.50;;
16977;SDS011;8605;52.548;4.918;2024-02-16T00:02:30;8.60;;;4.35;;
16977;SDS011;8605;52.548;4.918;2024-02-16T00:05:00;9.38;;;4.50;;
16977;SDS011;8605;52.548;4.918;2024-02-16T00:07:28;9.25;;;4.35;;
16977;SDS011;8605;52.548;4.918;2024-02-16T00:09:56;10.60;;;4.45;;
16977;SDS011;8605;52.548;4.918;2024-02-16T00:12:24;7.20;;;4.35;;
16977;SDS011;8605;52.548;4.918;2024-02-16T00:14:52;6.65;;;4.32;;
16977;SDS011;8605;52.548;4.918;2024-02-16T00:17:19;10.00;;;4.65;;
16977;SDS011;8605;52.548;4.918;2024-02-16T00:19:48;9.65;;;4.35;;
16977;SDS011;8605;52.548;4.918;2024-02-16T00:22:17;8.80;;;4.32;;
16977;SDS011;8605;52.548;4.918;2024-02-16T00:24:45;8.13;;;4.78;;
16977;SDS011;8605;52.548;4.918;2024-02-16T00:27:13;10.00;;;5.13;;
16977;SDS011;8605;52.548;4.918;2024-02-16T00:29:41;9.75;;;4.63;;
16977;SDS011;8605;52.548;4.918;2024-02-16T00:32:10;11.57;;;5.10;;
16977;SDS011;8605;52.548;4.918;2024-02-16T00:34:38;13.52;;;5.25;;
16977;SDS011;8605;52.548;4.918;2024-02-16T00:37:07;7.38;;;4.60;;
16977;SDS011;8605;52.548;4.918;2024-02-16T00:39:39;8.25;;;4.70;;
16977;SDS011;8605;52.548;4.918;2024-02-16T00:42:07;8.80;;;4.93;;
16977;SDS011;8605;52.548;4.918;2024-02-16T00:44:36;12.77;;;5.28;;
16977;SDS011;8605;52.548;4.918;2024-02-16T00:47:04;10.63;;;5.18;;
16977;SDS011;8605;52.548;4.918;2024-02-16T00:49:32;13.75;;;4.90;;
16977;SDS011;8605;52.548;4.918;2024-02-16T00:52:03;10.68;;;5.07;;
16977;SDS011;8605;52.548;4.918;2024-02-16T00:54:31;8.65;;;4.88;;
16977;SDS011;8605;52.548;4.918;2024-02-16T00:57:03;8.60;;;4.78;;
16977;SDS011;8605;52.548;4.918;2024-02-16T00:59:31;8.07;;;4.82;;
16977;SDS011;8605;52.548;4.918;2024-02-16T01:02:00;10.10;;;4.68;;
16977;SDS011;8605;52.548;4.918;2024-02-16T01:04:28;9.38;;;5.30;;
16977;SDS011;8605;52.548;4.918;2024-02-16T01:06:56;12.02;;;4.75;;
16977;SDS011;8605;52.548;4.918;2024-02-16T01:09:24;8.55;;;5.05;;
16977;SDS011;8605;52.548;4.918;2024-02-16T01:11:53;8.98;;;5.03;;
16977;SDS011;8605;52.548;4.918;2024-02-16T01:14:22;7.30;;;4.35;;
16977;SDS011;8605;52.548;4.918;2024-02-16T01:16:50;11.43;;;4.90;;
16977;SDS011;8605;52.548;4.918;2024-02-16T01:19:17;9.95;;;4.63;;
16977;SDS011;8605;52.548;4.918;2024-02-16T01:21:45;8.30;;;4.55;;
16977;SDS011;8605;52.548;4.918;2024-02-16T01:24:18;10.52;;;4.68;;
16977;SDS011;8605;52.548;4.918;2024-02-16T01:26:46;10.30;;;5.32;;
16977;SDS011;8605;52.548;4.918;2024-02-16T01:29:14;9.82;;;4.65;;
16977;SDS011;8605;52.548;4.918;2024-02-16T01:31:43;8.30;;;4.95;;
16977;SDS011;8605;52.548;4.918;2024-02-16T01:34:11;13.18;;;5.45;;
16977;SDS011;8605;52.548;4.918;2024-02-16T01:36:39;11.63;;;5.15;;
16977;SDS011;8605;52.548;4.918;2024-02-16T01:39:06;8.85;;;5.00;;
16977;SDS011;8605;52.548;4.918;2024-02-16T01:41:38;8.32;;;4.75;;
16977;SDS011;8605;52.548;4.918;2024-02-16T01:44:05;11.38;;;5.50;;
16977;SDS011;8605;52.548;4.918;2024-02-16T01:46:34;10.20;;;5.10;;
16977;SDS011;8605;52.548;4.918;2024-02-16T01:49:04;11.30;;;5.05;;
16977;SDS011;8605;52.548;4.918;2024-02-16T01:51:32;8.90;;;5.32;;
16977;SDS011;8605;52.548;4.918;2024-02-16T01:54:01;14.05;;;5.47;;
16977;SDS011;8605;52.548;4.918;2024-02-16T01:56:29;9.88;;;5.40;;
16977;SDS011;8605;52.548;4.918;2024-02-16T01:58:57;9.70;;;5.38;;
16977;SDS011;8605;52.548;4.918;2024-02-16T02:01:25;12.38;;;5.10;;
16977;SDS011;8605;52.548;4.918;2024-02-16T02:03:53;9.93;;;5.22;;
16977;SDS011;8605;52.548;4.918;2024-02-16T02:06:22;10.40;;;4.82;;
16977;SDS011;8605;52.548;4.918;2024-02-16T02:08:50;9.55;;;5.35;;
16977;SDS011;8605;52.548;4.918;2024-02-16T02:11:18;9.45;;;5.15;;
16977;SDS011;8605;52.548;4.918;2024-02-16T02:13:45;9.02;;;5.03;;
16977;SDS011;8605;52.548;4.918;2024-02-16T02:16:13;10.40;;;5.70;;
16977;SDS011;8605;52.548;4.918;2024-02-16T02:18:44;8.52;;;5.15;;
16977;SDS011;8605;52.548;4.918;2024-02-16T02:21:12;11.27;;;5.30;;
16977;SDS011;8605;52.548;4.918;2024-02-16T02:23:42;11.38;;;5.30;;
16977;SDS011;8605;52.548;4.918;2024-02-16T02:26:10;13.52;;;5.28;;
16977;SDS011;8605;52.548;4.918;2024-02-16T02:28:37;9.25;;;5.35;;
16977;SDS011;8605;52.548;4.918;2024-02-16T02:31:05;11.07;;;5.72;;
16977;SDS011;8605;52.548;4.918;2024-02-16T02:33:35;7.72;;;5.38;;
16977;SDS011;8605;52.548;4.918;2024-02-16T02:36:03;9.68;;;5.28;;
16977;SDS011;8605;52.548;4.918;2024-02-16T02:38:32;9.82;;;5.50;;
16977;SDS011;8605;52.548;4.918;2024-02-16T02:41:01;10.80;;;5.40;;
16977;SDS011;8605;52.548;4.918;2024-02-16T02:43:33;11.32;;;5.32;;
16977;SDS011;8605;52.548;4.918;2024-02-16T02:46:01;13.00;;;5.88;;
16977;SDS011;8605;52.548;4.918;2024-02-16T02:48:29;7.50;;;5.10;;
16977;SDS011;8605;52.548;4.918;2024-02-16T02:50:57;7.32;;;5.03;;
16977;SDS011;8605;52.548;4.918;2024-02-16T02:53:27;11.02;;;5.85;;
16977;SDS011;8605;52.548;4.918;2024-02-16T02:55:55;9.85;;;4.85;;
16977;SDS011;8605;52.548;4.918;2024-02-16T02:58:24;9.38;;;4.97;;
16977;SDS011;8605;52.548;4.918;2024-02-16T03:00:52;8.15;;;5.55;;
16977;SDS011;8605;52.548;4.918;2024-02-16T03:03:20;9.15;;;5.75;;
16977;SDS011;8605;52.548;4.918;2024-02-16T03:05:49;8.10;;;5.20;;
16977;SDS011;8605;52.548;4.918;2024-02-16T03:08:17;8.98;;;5.47;;
16977;SDS011;8605;52.548;4.918;2024-02-16T03:10:46;13.10;;;5.60;;
16977;SDS011;8605;52.548;4.918;2024-02-16T03:13:14;9.30;;;5.20;;
16977;SDS011;8605;52.548;4.918;2024-02-16T03:15:45;9.18;;;5.30;;
16977;SDS011;8605;52.548;4.918;2024-02-16T03:18:13;9.25;;;5.50;;
16977;SDS011;8605;52.548;4.918;2024-02-16T03:20:41;7.45;;;4.85;;
16977;SDS011;8605;52.548;4.918;2024-02-16T03:23:12;8.10;;;5.25;;
16977;SDS011;8605;52.548;4.918;2024-02-16T03:25:40;9.88;;;5.32;;
16977;SDS011;8605;52.548;4.918;2024-02-16T03:28:09;14.80;;;6.28;;
16977;SDS011;8605;52.548;4.918;2024-02-16T03:30:38;9.20;;;4.90;;
16977;SDS011;8605;52.548;4.918;2024-02-16T03:33:08;10.45;;;5.28;;
16977;SDS011;8605;52.548;4.918;2024-02-16T03:35:36;11.00;;;5.32;;
16977;SDS011;8605;52.548;4.918;2024-02-16T03:38:04;7.43;;;4.82;;
16977;SDS011;8605;52.548;4.918;2024-02-16T03:40:32;12.65;;;5.55;;
16977;SDS011;8605;52.548;4.918;2024-02-16T03:43:00;10.80;;;5.50;;
16977;SDS011;8605;52.548;4.918;2024-02-16T03:45:28;10.43;;;5.40;;
16977;SDS011;8605;52.548;4.918;2024-02-16T03:47:56;9.95;;;5.70;;
16977;SDS011;8605;52.548;4.918;2024-02-16T03:50:25;11.23;;;6.00;;
16977;SDS011;8605;52.548;4.918;2024-02-16T03:52:53;10.20;;;5.72;;
16977;SDS011;8605;52.548;4.918;2024-02-16T03:55:21;9.32;;;5.43;;
16977;SDS011;8605;52.548;4.918;2024-02-16T03:57:49;7.90;;;5.63;;
16977;SDS011;8605;52.548;4.918;2024-02-16T04:00:17;9.70;;;5.68;;
16977;SDS011;8605;52.548;4.918;2024-02-16T04:02:47;11.35;;;6.22;;
16977;SDS011;8605;52.548;4.918;2024-02-16T04:05:14;10.55;;;6.18;;
16977;SDS011;8605;52.548;4.918;2024-02-16T04:07:43;11.30;;;6.00;;
16977;SDS011;8605;52.548;4.918;2024-02-16T04:10:13;9.43;;;5.47;;
16977;SDS011;8605;52.548;4.918;2024-02-16T04:12:41;10.57;;;5.95;;
16977;SDS011;8605;52.548;4.918;2024-02-16T04:15:09;10.57;;;5.45;;
16977;SDS011;8605;52.548;4.918;2024-02-16T04:17:37;8.90;;;5.55;;
16977;SDS011;8605;52.548;4.918;2024-02-16T04:20:05;12.23;;;5.63;;
16977;SDS011;8605;52.548;4.918;2024-02-16T04:22:33;10.18;;;6.43;;
16977;SDS011;8605;52.548;4.918;2024-02-16T04:25:05;12.27;;;5.70;;
16977;SDS011;8605;52.548;4.918;2024-02-16T04:27:35;11.57;;;6.10;;
16977;SDS011;8605;52.548;4.918;2024-02-16T04:30:03;8.82;;;5.30;;
16977;SDS011;8605;52.548;4.918;2024-02-16T04:32:32;13.13;;;5.80;;
16977;SDS011;8605;52.548;4.918;2024-02-16T04:35:00;10.20;;;5.47;;
16977;SDS011;8605;52.548;4.918;2024-02-16T04:37:28;8.07;;;5.65;;
16977;SDS011;8605;52.548;4.918;2024-02-16T04:39:56;12.90;;;6.30;;
16977;SDS011;8605;52.548;4.918;2024-02-16T04:42:25;9.60;;;5.75;;
16977;SDS011;8605;52.548;4.918;2024-02-16T04:44:53;11.20;;;6.45;;
16977;SDS011;8605;52.548;4.918;2024-02-16T04:47:21;13.00;;;5.75;;
16977;SDS011;8605;52.548;4.918;2024-02-16T04:49:48;12.40;;;5.85;;
16977;SDS011;8605;52.548;4.918;2024-02-16T04:52:16;10.55;;;5.53;;
16977;SDS011;8605;52.548;4.918;2024-02-16T04:54:44;13.35;;;5.55;;
16977;SDS011;8605;52.548;4.918;2024-02-16T04:57:12;12.52;;;5.53;;
16977;SDS011;8605;52.548;4.918;2024-02-16T04:59:41;9.13;;;5.80;;
16977;SDS011;8605;52.548;4.918;2024-02-16T05:02:08;12.32;;;6.00;;
16977;SDS011;8605;52.548;4.918;2024-02-16T05:04:36;9.88;;;5.28;;
16977;SDS011;8605;52.548;4.918;2024-02-16T05:07:04;8.68;;;5.68;;
16977;SDS011;8605;52.548;4.918;2024-02-16T05:09:32;10.80;;;5.97;;
16977;SDS011;8605;52.548;4.918;2024-02-16T05:12:00;12.07;;;5.90;;
16977;SDS011;8605;52.548;4.918;2024-02-16T05:14:28;11.30;;;6.28;;
16977;SDS011;8605;52.548;4.918;2024-02-16T05:16:57;11.68;;;5.90;;
16977;SDS011;8605;52.548;4.918;2024-02-16T05:19:25;11.60;;;5.78;;
16977;SDS011;8605;52.548;4.918;2024-02-16T05:21:53;8.10;;;6.03;;
16977;SDS011;8605;52.548;4.918;2024-02-16T05:24:21;16.95;;;6.47;;
16977;SDS011;8605;52.548;4.918;2024-02-16T05:26:49;12.68;;;6.28;;
16977;SDS011;8605;52.548;4.918;2024-02-16T05:29:18;10.88;;;5.88;;
16977;SDS011;8605;52.548;4.918;2024-02-16T05:31:45;15.07;;;6.80;;
16977;SDS011;8605;52.548;4.918;2024-02-16T05:34:15;13.95;;;6.22;;
16977;SDS011;8605;52.548;4.918;2024-02-16T05:36:43;15.23;;;6.20;;
16977;SDS011;8605;52.548;4.918;2024-02-16T05:39:36;11.15;;;6.28;;
16977;SDS011;8605;52.548;4.918;2024-02-16T05:42:20;15.00;;;7.45;;
16977;SDS011;8605;52.548;4.918;2024-02-16T05:44:49;12.93;;;7.05;;
16977;SDS011;8605;52.548;4.918;2024-02-16T05:47:17;11.02;;;6.60;;
16977;SDS011;8605;52.548;4.918;2024-02-16T05:49:46;14.35;;;7.15;;
16977;SDS011;8605;52.548;4.918;2024-02-16T05:52:14;10.98;;;6.90;;
16977;SDS011;8605;52.548;4.918;2024-02-16T05:54:48;11.00;;;6.45;;
16977;SDS011;8605;52.548;4.918;2024-02-16T05:57:16;13.73;;;7.10;;
16977;SDS011;8605;52.548;4.918;2024-02-16T05:59:44;13.10;;;6.97;;
16977;SDS011;8605;52.548;4.918;2024-02-16T06:02:18;15.70;;;7.13;;
16977;SDS011;8605;52.548;4.918;2024-02-16T06:04:47;11.40;;;7.10;;
16977;SDS011;8605;52.548;4.918;2024-02-16T06:07:16;11.35;;;7.15;;
16977;SDS011;8605;52.548;4.918;2024-02-16T06:09:44;17.90;;;7.57;;
16977;SDS011;8605;52.548;4.918;2024-02-16T06:12:12;13.63;;;7.35;;
16977;SDS011;8605;52.548;4.918;2024-02-16T06:14:42;12.52;;;7.15;;
16977;SDS011;8605;52.548;4.918;2024-02-16T06:17:09;12.73;;;7.47;;
16977;SDS011;8605;52.548;4.918;2024-02-16T06:19:37;14.70;;;8.10;;
16977;SDS011;8605;52.548;4.918;2024-02-16T06:22:08;18.40;;;7.25;;
16977;SDS011;8605;52.548;4.918;2024-02-16T06:24:36;15.52;;;7.32;;
16977;SDS011;8605;52.548;4.918;2024-02-16T06:27:04;13.38;;;7.90;;
16977;SDS011;8605;52.548;4.918;2024-02-16T06:29:32;18.25;;;8.30;;
16977;SDS011;8605;52.548;4.918;2024-02-16T06:32:02;14.10;;;7.47;;
16977;SDS011;8605;52.548;4.918;2024-02-16T06:34:30;13.68;;;7.38;;
16977;SDS011;8605;52.548;4.918;2024-02-16T06:36:58;15.82;;;7.90;;
16977;SDS011;8605;52.548;4.918;2024-02-16T06:39:28;14.88;;;7.63;;
16977;SDS011;8605;52.548;4.918;2024-02-16T06:41:57;12.05;;;7.10;;
16977;SDS011;8605;52.548;4.918;2024-02-16T06:44:26;12.93;;;8.05;;
16977;SDS011;8605;52.548;4.918;2024-02-16T06:46:54;13.40;;;8.13;;
16977;SDS011;8605;52.548;4.918;2024-02-16T06:49:22;15.20;;;8.10;;
16977;SDS011;8605;52.548;4.918;2024-02-16T06:51:50;13.27;;;7.32;;
16977;SDS011;8605;52.548;4.918;2024-02-16T06:54:17;15.52;;;7.68;;
16977;SDS011;8605;52.548;4.918;2024-02-16T06:56:46;14.15;;;7.15;;
16977;SDS011;8605;52.548;4.918;2024-02-16T06:59:14;12.60;;;7.65;;
16977;SDS011;8605;52.548;4.918;2024-02-16T07:01:42;12.55;;;8.18;;
16977;SDS011;8605;52.548;4.918;2024-02-16T07:04:10;17.55;;;7.78;;
16977;SDS011;8605;52.548;4.918;2024-02-16T07:06:37;17.25;;;8.50;;
16977;SDS011;8605;52.548;4.918;2024-02-16T07:09:05;16.17;;;8.80;;
16977;SDS011;8605;52.548;4.918;2024-02-16T07:11:34;15.48;;;8.00;;
16977;SDS011;8605;52.548;4.918;2024-02-16T07:14:03;15.13;;;8.15;;
16977;SDS011;8605;52.548;4.918;2024-02-16T07:16:34;15.27;;;8.63;;
16977;SDS011;8605;52.548;4.918;2024-02-16T07:19:03;14.23;;;7.88;;
16977;SDS011;8605;52.548;4.918;2024-02-16T07:21:31;18.48;;;8.80;;
16977;SDS011;8605;52.548;4.918;2024-02-16T07:24:00;13.38;;;8.35;;
16977;SDS011;8605;52.548;4.918;2024-02-16T07:26:28;17.73;;;9.15;;
16977;SDS011;8605;52.548;4.918;2024-02-16T07:28:55;15.23;;;8.27;;
16977;SDS011;8605;52.548;4.918;2024-02-16T07:31:25;15.77;;;8.90;;
16977;SDS011;8605;52.548;4.918;2024-02-16T07:33:52;15.88;;;9.02;;
16977;SDS011;8605;52.548;4.918;2024-02-16T07:36:20;15.32;;;8.45;;
16977;SDS011;8605;52.548;4.918;2024-02-16T07:38:48;14.35;;;8.18;;
16977;SDS011;8605;52.548;4.918;2024-02-16T07:41:16;17.08;;;8.38;;
16977;SDS011;8605;52.548;4.918;2024-02-16T07:43:43;17.13;;;9.13;;
16977;SDS011;8605;52.548;4.918;2024-02-16T07:46:14;16.92;;;8.27;;
16977;SDS011;8605;52.548;4.918;2024-02-16T07:48:43;12.63;;;7.82;;
16977;SDS011;8605;52.548;4.918;2024-02-16T07:51:11;15.48;;;8.80;;
16977;SDS011;8605;52.548;4.918;2024-02-16T07:53:39;16.88;;;9.27;;
16977;SDS011;8605;52.548;4.918;2024-02-16T07:56:08;15.50;;;9.27;;
16977;SDS011;8605;52.548;4.918;2024-02-16T07:58:36;17.00;;;8.77;;
16977;SDS011;8605;52.548;4.918;2024-02-16T08:01:04;15.30;;;8.70;;
16977;SDS011;8605;52.548;4.918;2024-02-16T08:03:32;15.68;;;8.50;;
16977;SDS011;8605;52.548;4.918;2024-02-16T08:06:02;17.08;;;9.30;;
16977;SDS011;8605;52.548;4.918;2024-02-16T08:08:31;19.17;;;8.85;;
16977;SDS011;8605;52.548;4.918;2024-02-16T08:10:59;20.08;;;9.50;;
16977;SDS011;8605;52.548;4.918;2024-02-16T08:13:27;18.48;;;9.07;;
16977;SDS011;8605;52.548;4.918;2024-02-16T08:15:54;15.77;;;9.43;;
16977;SDS011;8605;52.548;4.918;2024-02-16T08:18:23;20.48;;;10.07;;
16977;SDS011;8605;52.548;4.918;2024-02-16T08:20:51;14.27;;;8.80;;
16977;SDS011;8605;52.548;4.918;2024-02-16T08:23:20;14.65;;;9.55;;
16977;SDS011;8605;52.548;4.918;2024-02-16T08:25:48;16.40;;;9.40;;
16977;SDS011;8605;52.548;4.918;2024-02-16T08:28:16;16.02;;;9.00;;
16977;SDS011;8605;52.548;4.918;2024-02-16T08:30:44;15.80;;;9.95;;
16977;SDS011;8605;52.548;4.918;2024-02-16T08:33:11;18.30;;;9.13;;
16977;SDS011;8605;52.548;4.918;2024-02-16T08:35:40;15.77;;;9.30;;
16977;SDS011;8605;52.548;4.918;2024-02-16T08:38:08;17.50;;;9.30;;
16977;SDS011;8605;52.548;4.918;2024-02-16T08:40:40;15.90;;;8.93;;
16977;SDS011;8605;52.548;4.918;2024-02-16T08:43:07;21.75;;;8.90;;
16977;SDS011;8605;52.548;4.918;2024-02-16T08:45:35;17.23;;;8.80;;
16977;SDS011;8605;52.548;4.918;2024-02-16T08:48:03;16.23;;;8.40;;
16977;SDS011;8605;52.548;4.918;2024-02-16T08:50:32;16.33;;;8.45;;
16977;SDS011;8605;52.548;4.918;2024-02-16T08:53:02;16.92;;;9.18;;
16977;SDS011;8605;52.548;4.918;2024-02-16T08:55:30;17.20;;;9.35;;
16977;SDS011;8605;52.548;4.918;2024-02-16T08:58:00;13.60;;;8.27;;
16977;SDS011;8605;52.548;4.918;2024-02-16T09:00:28;18.50;;;8.88;;
16977;SDS011;8605;52.548;4.918;2024-02-16T09:02:56;25.20;;;9.65;;
16977;SDS011;8605;52.548;4.918;2024-02-16T09:05:24;20.13;;;9.43;;
16977;SDS011;8605;52.548;4.918;2024-02-16T09:07:52;19.65;;;9.20;;
16977;SDS011;8605;52.548;4.918;2024-02-16T09:10:20;22.17;;;9.30;;
16977;SDS011;8605;52.548;4.918;2024-02-16T09:12:48;20.45;;;8.60;;
16977;SDS011;8605;52.548;4.918;2024-02-16T09:15:19;24.65;;;10.07;;
16977;SDS011;8605;52.548;4.918;2024-02-16T09:17:46;21.17;;;9.27;;
16977;SDS011;8605;52.548;4.918;2024-02-16T09:20:14;28.02;;;10.15;;
16977;SDS011;8605;52.548;4.918;2024-02-16T09:22:48;24.55;;;9.85;;
16977;SDS011;8605;52.548;4.918;2024-02-16T09:25:16;35.45;;;12.05;;
16977;SDS011;8605;52.548;4.918;2024-02-16T09:27:46;40.58;;;13.55;;
16977;SDS011;8605;52.548;4.918;2024-02-16T09:30:14;44.03;;;15.68;;
16977;SDS011;8605;52.548;4.918;2024-02-16T09:32:44;53.58;;;16.73;;
16977;SDS011;8605;52.548;4.918;2024-02-16T09:35:15;59.80;;;17.85;;
16977;SDS011;8605;52.548;4.918;2024-02-16T09:37:43;56.33;;;17.73;;
16977;SDS011;8605;52.548;4.918;2024-02-16T09:40:12;53.53;;;17.20;;
16977;SDS011;8605;52.548;4.918;2024-02-16T09:42:40;63.40;;;18.85;;
16977;SDS011;8605;52.548;4.918;2024-02-16T09:45:08;56.60;;;19.17;;
16977;SDS011;8605;52.548;4.918;2024-02-16T09:47:38;64.22;;;20.50;;
16977;SDS011;8605;52.548;4.918;2024-02-16T09:50:14;65.88;;;19.98;;
16977;SDS011;8605;52.548;4.918;2024-02-16T09:52:47;67.05;;;19.48;;
16977;SDS011;8605;52.548;4.918;2024-02-16T09:55:16;51.65;;;19.73;;
16977;SDS011;8605;52.548;4.918;2024-02-16T09:57:57;51.50;;;20.17;;
16977;SDS011;8605;52.548;4.918;2024-02-16T10:00:26;51.97;;;19.48;;
16977;SDS011;8605;52.548;4.918;2024-02-16T10:02:54;52.03;;;18.48;;
16977;SDS011;8605;52.548;4.918;2024-02-16T10:05:23;52.63;;;18.48;;
16977;SDS011;8605;52.548;4.918;2024-02-16T10:07:51;47.70;;;19.00;;
16977;SDS011;8605;52.548;4.918;2024-02-16T10:10:20;44.90;;;18.02;;
16977;SDS011;8605;52.548;4.918;2024-02-16T10:12:49;42.90;;;17.67;;
16977;SDS011;8605;52.548;4.918;2024-02-16T10:15:20;39.50;;;16.63;;
16977;SDS011;8605;52.548;4.918;2024-02-16T10:20:38;34.40;;;15.38;;
16977;SDS011;8605;52.548;4.918;2024-02-16T10:23:06;33.22;;;15.63;;
16977;SDS011;8605;52.548;4.918;2024-02-16T10:25:35;31.20;;;15.43;;
16977;SDS011;8605;52.548;4.918;2024-02-16T10:28:04;30.20;;;14.13;;
16977;SDS011;8605;52.548;4.918;2024-02-16T10:30:34;30.33;;;15.20;;
16977;SDS011;8605;52.548;4.918;2024-02-16T10:33:05;26.95;;;13.60;;
16977;SDS011;8605;52.548;4.918;2024-02-16T10:35:34;25.02;;;12.00;;
16977;SDS011;8605;52.548;4.918;2024-02-16T10:38:04;26.52;;;13.07;;
16977;SDS011;8605;52.548;4.918;2024-02-16T10:40:37;24.00;;;11.93;;
16977;SDS011;8605;52.548;4.918;2024-02-16T10:43:09;29.85;;;12.52;;
16977;SDS011;8605;52.548;4.918;2024-02-16T10:45:37;27.17;;;12.45;;
16977;SDS011;8605;52.548;4.918;2024-02-16T10:48:06;20.48;;;11.18;;
16977;SDS011;8605;52.548;4.918;2024-02-16T10:50:35;19.63;;;11.07;;
16977;SDS011;8605;52.548;4.918;2024-02-16T10:53:08;20.15;;;11.60;;
16977;SDS011;8605;52.548;4.918;2024-02-16T10:55:39;24.98;;;11.70;;
16977;SDS011;8605;52.548;4.918;2024-02-16T10:58:07;19.77;;;10.82;;
16977;SDS011;8605;52.548;4.918;2024-02-16T11:00:35;26.63;;;12.80;;
16977;SDS011;8605;52.548;4.918;2024-02-16T11:03:07;24.73;;;12.85;;
16977;SDS011;8605;52.548;4.918;2024-02-16T11:05:34;25.08;;;13.25;;
16977;SDS011;8605;52.548;4.918;2024-02-16T11:08:03;26.60;;;13.57;;
16977;SDS011;8605;52.548;4.918;2024-02-16T11:10:34;29.90;;;14.38;;
16977;SDS011;8605;52.548;4.918;2024-02-16T11:13:06;32.05;;;13.88;;
16977;SDS011;8605;52.548;4.918;2024-02-16T11:15:34;30.58;;;14.65;;
16977;SDS011;8605;52.548;4.918;2024-02-16T11:18:05;28.88;;;14.43;;
16977;SDS011;8605;52.548;4.918;2024-02-16T11:20:36;30.13;;;13.85;;
16977;SDS011;8605;52.548;4.918;2024-02-16T11:23:05;34.20;;;14.25;;
16977;SDS011;8605;52.548;4.918;2024-02-16T11:25:37;24.38;;;12.45;;
16977;SDS011;8605;52.548;4.918;2024-02-16T11:28:05;24.83;;;12.68;;
16977;SDS011;8605;52.548;4.918;2024-02-16T11:30:36;24.38;;;12.52;;
16977;SDS011;8605;52.548;4.918;2024-02-16T11:33:04;20.25;;;11.07;;
16977;SDS011;8605;52.548;4.918;2024-02-16T11:35:32;17.75;;;9.75;;
16977;SDS011;8605;52.548;4.918;2024-02-16T11:38:01;24.02;;;10.45;;
16977;SDS011;8605;52.548;4.918;2024-02-16T11:40:29;22.27;;;9.77;;
16977;SDS011;8605;52.548;4.918;2024-02-16T11:42:59;24.23;;;10.50;;
16977;SDS011;8605;52.548;4.918;2024-02-16T11:45:27;15.80;;;8.82;;
16977;SDS011;8605;52.548;4.918;2024-02-16T11:48:05;19.00;;;8.68;;
16977;SDS011;8605;52.548;4.918;2024-02-16T11:50:34;19.15;;;9.18;;
16977;SDS011;8605;52.548;4.918;2024-02-16T11:53:02;15.88;;;7.57;;
16977;SDS011;8605;52.548;4.918;2024-02-16T11:55:30;17.40;;;8.50;;
16977;SDS011;8605;52.548;4.918;2024-02-16T11:58:03;19.13;;;8.98;;
16977;SDS011;8605;52.548;4.918;2024-02-16T12:00:31;18.42;;;8.32;;
16977;SDS011;8605;52.548;4.918;2024-02-16T12:03:02;22.10;;;8.25;;
16977;SDS011;8605;52.548;4.918;2024-02-16T12:05:30;14.23;;;8.25;;
16977;SDS011;8605;52.548;4.918;2024-02-16T12:08:01;14.23;;;8.35;;
16977;SDS011;8605;52.548;4.918;2024-02-16T12:10:29;17.70;;;8.43;;
16977;SDS011;8605;52.548;4.918;2024-02-16T12:12:56;18.27;;;8.35;;
16977;SDS011;8605;52.548;4.918;2024-02-16T12:15:32;16.40;;;9.48;;
16977;SDS011;8605;52.548;4.918;2024-02-16T12:18:01;21.98;;;10.15;;
16977;SDS011;8605;52.548;4.918;2024-02-16T12:20:30;20.70;;;10.52;;
16977;SDS011;8605;52.548;4.918;2024-02-16T12:23:10;19.60;;;10.48;;
16977;SDS011;8605;52.548;4.918;2024-02-16T12:25:38;19.75;;;10.80;;
16977;SDS011;8605;52.548;4.918;2024-02-16T12:28:06;21.95;;;10.20;;
16977;SDS011;8605;52.548;4.918;2024-02-16T12:30:35;29.33;;;11.60;;
16977;SDS011;8605;52.548;4.918;2024-02-16T12:33:03;22.63;;;11.00;;
16977;SDS011;8605;52.548;4.918;2024-02-16T12:35:32;26.35;;;10.60;;
16977;SDS011;8605;52.548;4.918;2024-02-16T12:38:00;29.98;;;9.20;;
16977;SDS011;8605;52.548;4.918;2024-02-16T12:40:28;26.90;;;10.20;;
16977;SDS011;8605;52.548;4.918;2024-02-16T12:43:04;27.08;;;9.27;;
16977;SDS011;8605;52.548;4.918;2024-02-16T12:45:35;24.63;;;8.57;;
16977;SDS011;8605;52.548;4.918;2024-02-16T12:48:05;26.77;;;8.68;;
16977;SDS011;8605;52.548;4.918;2024-02-16T12:50:33;26.50;;;9.40;;
16977;SDS011;8605;52.548;4.918;2024-02-16T12:53:06;24.63;;;9.07;;
16977;SDS011;8605;52.548;4.918;2024-02-16T12:55:34;24.65;;;9.25;;
16977;SDS011;8605;52.548;4.918;2024-02-16T12:58:02;31.23;;;10.82;;
16977;SDS011;8605;52.548;4.918;2024-02-16T13:00:30;40.80;;;11.32;;
16977;SDS011;8605;52.548;4.918;2024-02-16T13:03:01;29.52;;;10.65;;
16977;SDS011;8605;52.548;4.918;2024-02-16T13:05:28;36.03;;;11.18;;
16977;SDS011;8605;52.548;4.918;2024-02-16T13:07:58;34.88;;;12.20;;
16977;SDS011;8605;52.548;4.918;2024-02-16T13:10:26;33.75;;;12.18;;
16977;SDS011;8605;52.548;4.918;2024-02-16T13:12:54;30.30;;;12.40;;
16977;SDS011;8605;52.548;4.918;2024-02-16T13:15:22;38.40;;;13.15;;
16977;SDS011;8605;52.548;4.918;2024-02-16T13:17:54;38.35;;;11.98;;
16977;SDS011;8605;52.548;4.918;2024-02-16T13:20:24;32.65;;;11.65;;
16977;SDS011;8605;52.548;4.918;2024-02-16T13:22:52;34.05;;;12.27;;
16977;SDS011;8605;52.548;4.918;2024-02-16T13:25:20;33.08;;;12.05;;
16977;SDS011;8605;52.548;4.918;2024-02-16T13:27:48;29.33;;;11.68;;
16977;SDS011;8605;52.548;4.918;2024-02-16T13:30:16;24.98;;;10.95;;
16977;SDS011;8605;52.548;4.918;2024-02-16T13:32:44;31.60;;;11.52;;
16977;SDS011;8605;52.548;4.918;2024-02-16T13:35:12;21.65;;;10.18;;
16977;SDS011;8605;52.548;4.918;2024-02-16T13:37:47;27.65;;;10.18;;
16977;SDS011;8605;52.548;4.918;2024-02-16T13:40:15;24.25;;;10.48;;
16977;SDS011;8605;52.548;4.918;2024-02-16T13:42:44;25.70;;;10.40;;
16977;SDS011;8605;52.548;4.918;2024-02-16T13:45:12;28.00;;;10.13;;
16977;SDS011;8605;52.548;4.918;2024-02-16T13:47:40;25.63;;;10.57;;
16977;SDS011;8605;52.548;4.918;2024-02-16T13:50:08;28.38;;;10.43;;
16977;SDS011;8605;52.548;4.918;2024-02-16T13:52:37;22.98;;;10.02;;
16977;SDS011;8605;52.548;4.918;2024-02-16T13:55:07;27.45;;;11.48;;
16977;SDS011;8605;52.548;4.918;2024-02-16T13:57:38;26.02;;;11.90;;
16977;SDS011;8605;52.548;4.918;2024-02-16T14:00:06;30.65;;;13.18;;
16977;SDS011;8605;52.548;4.918;2024-02-16T14:02:38;33.65;;;14.23;;
16977;SDS011;8605;52.548;4.918;2024-02-16T14:05:06;36.85;;;15.68;;
16977;SDS011;8605;52.548;4.918;2024-02-16T14:07:33;42.47;;;18.33;;
16977;SDS011;8605;52.548;4.918;2024-02-16T14:10:17;38.60;;;17.08;;
16977;SDS011;8605;52.548;4.918;2024-02-16T14:12:45;35.53;;;18.40;;
16977;SDS011;8605;52.548;4.918;2024-02-16T14:15:14;39.67;;;18.13;;
16977;SDS011;8605;52.548;4.918;2024-02-16T14:17:43;35.25;;;17.67;;
16977;SDS011;8605;52.548;4.918;2024-02-16T14:20:11;42.95;;;16.85;;
16977;SDS011;8605;52.548;4.918;2024-02-16T14:22:39;36.65;;;17.10;;
16977;SDS011;8605;52.548;4.918;2024-02-16T14:25:07;42.03;;;17.20;;
16977;SDS011;8605;52.548;4.918;2024-02-16T14:27:41;32.40;;;17.08;;
16977;SDS011;8605;52.548;4.918;2024-02-16T14:30:09;42.45;;;16.60;;
16977;SDS011;8605;52.548;4.918;2024-02-16T14:32:38;42.88;;;17.92;;
16977;SDS011;8605;52.548;4.918;2024-02-16T14:35:07;47.42;;;18.13;;
16977;SDS011;8605;52.548;4.918;2024-02-16T14:37:36;38.25;;;16.30;;
16977;SDS011;8605;52.548;4.918;2024-02-16T14:40:05;40.83;;;18.15;;
16977;SDS011;8605;52.548;4.918;2024-02-16T14:42:36;42.17;;;18.13;;
16977;SDS011;8605;52.548;4.918;2024-02-16T14:45:08;39.75;;;19.02;;
16977;SDS011;8605;52.548;4.918;2024-02-16T14:47:46;45.55;;;19.83;;
16977;SDS011;8605;52.548;4.918;2024-02-16T14:50:14;55.10;;;20.98;;
16977;SDS011;8605;52.548;4.918;2024-02-16T14:52:42;41.80;;;19.83;;
16977;SDS011;8605;52.548;4.918;2024-02-16T14:55:12;41.03;;;20.35;;
16977;SDS011;8605;52.548;4.918;2024-02-16T14:57:40;36.50;;;17.98;;